ěÝzenÝ letovÚho provozu ╚eskÚ republiky
Letiste: LKCR Aktualizace: 16.04.2024 06:30:58  UTC
 METAR LKCR 16.04. 06:30 ...
METAR LKCR 160630Z AUTO 26013KT 9999 BKN130 BKN160 07/01 Q1004=